Brussel, België

5:07 PM CEST op 21 oktober 2014 (GMT +0200)
Brussels National | Change Station
CLOSE
Current Station
Luchthaven
Location: Brussels,
Geometrische hoogte: 190 ft
Nabije weerstations

Hoogte 190 ft 50.90 °N, 4.53 °E | Updated 17 minutes ago

Light Rain Showers
Lichte regenbuien
52 °F
Voelt als 52 °F
N
23
Wind Variabel Wind van WNW

Vandaag
Hoog -- | Laag -- °F
--% Kans op neerslag
Gisteren
Hoog -- | Laag -- °F
Precip. -- inches
8:14 AM 6:37 PM
Afnemende halvemaan, 5% visible
Druk 29.65 inches
Zicht 5.6 mijlen
Wolken Merendeels bewolkt 3000 ft
Dauwpunt 43 °F
Vochtigheid 71%
Neerslag 0.00 inches
Dikte sneeuw Niet beschikbaar.
UV 0 van de 12
Pollen Niet beschikbaar.
Luchtkwaliteit Niet beschikbaar.
Flu Activity Niet beschikbaar.
METAR EBBR 211450Z 29020KT 9000 -SHRA BKN030CB 11/06 Q1004 TEMPO 3000 SHRA TSRAGS

More Conditions Fewer Conditions

Druk 29.65 inches
Zicht 5.6 mijlen
Wolken Merendeels bewolkt 3000 ft
Dauwpunt 43 °F
Vochtigheid 71%
Neerslag 0.00 inches
Dikte sneeuw Niet beschikbaar.
UV 0 van de 12
Pollen Niet beschikbaar.
Luchtkwaliteit Niet beschikbaar.
Flu Activity Niet beschikbaar.
METAR EBBR 211450Z 29020KT 9000 -SHRA BKN030CB 11/06 Q1004 TEMPO 3000 SHRA TSRAGS

More Conditions Fewer Conditions

10-Day Weather Forecast

Almanac

Astronomie

Oct. 21, 2014 Opkomst Ondergang
Werkelijke tijd 8:14 AM CEST 6:37 PM CEST
Burgerlijke schemering 7:41 AM CEST 7:11 PM CEST
Nautische schemering 7:02 AM CEST 7:49 PM CEST
Astronomische schemering 6:24 AM CEST 8:27 PM CEST
Maan 5:28 AM CEST 5:35 PM CEST
Golflengte van het zichtbare licht 11h 30m
Daglengte
10h 22m
Tomorrow will be 3m 40s shorter.
Afnemende halvemaan, 5% of the Moon is Illuminated
Vandaag
Afnemende halvemaan
oktober 23
Nieuw
oktober 30
Eerste kwartier
nov 6
Volle maan
nov 14
Laatste kwartier

Extremen vandaag

Country Highs Country Lows

Community

WunderPhotos

Upload Photos

1,763,682 foto’s ge-upload!

WunderBlogs® & News

By Dr. Jeff Masters
Director of Meteorology, Weather Underground
By Kari Strenfel
Meteorologist, Weather Underground
By Christopher C. Burt
Weather Historian, Weather Underground
October 21, 2014
October 21, 2014
October 21, 2014

Nearby

Luchtkwaliteit

Not available.

Dikte sneeuw

Not available.

Aardbevingen

Stad Distance Mag. Time & Date
No recent earthquake activity has been reported nearby.
Minimum magnitude displayed is 2.5.

Watertemperatuur langs de kust

Plaats Temperatuur
Geen meldingen van stations

Nabije weerstations